sensor_id;sensor_type;location;lat;lon;timestamp;P1;P4;P2;P0;N10;N4;N25;N1;N05;TS
79576;SPS30;69045;48.136;11.386;2024-01-25T00:01:45;3.44;3.16;2.61;1.85;14.81;14.78;14.64;13.87;10.80;0.73
79576;SPS30;69045;48.136;11.386;2024-01-25T00:04:15;3.59;3.26;2.62;1.75;14.05;14.01;13.85;12.95;9.86;0.76
79576;SPS30;69045;48.136;11.386;2024-01-25T00:06:43;3.38;3.07;2.47;1.67;13.37;13.34;13.18;12.35;9.43;0.74
79576;SPS30;69045;48.136;11.386;2024-01-25T00:09:11;3.65;3.32;2.68;1.81;14.55;14.51;14.34;13.45;10.29;0.75
79576;SPS30;69045;48.136;11.386;2024-01-25T00:11:39;3.33;3.07;2.55;1.83;14.67;14.65;14.51;13.78;10.78;0.72
79576;SPS30;69045;48.136;11.386;2024-01-25T00:14:07;2.77;2.56;2.15;1.57;12.58;12.56;12.45;11.87;9.34;0.71
79576;SPS30;69045;48.136;11.386;2024-01-25T00:16:35;3.02;2.79;2.33;1.70;13.61;13.58;13.47;12.82;10.08;0.70
79576;SPS30;69045;48.136;11.386;2024-01-25T00:19:03;3.42;3.15;2.60;1.85;14.86;14.83;14.69;13.93;10.86;0.72
79576;SPS30;69045;48.136;11.386;2024-01-25T00:21:32;3.24;2.97;2.43;1.70;13.64;13.61;13.47;12.72;9.85;0.73
79576;SPS30;69045;48.136;11.386;2024-01-25T00:24:00;3.25;2.98;2.46;1.74;13.97;13.94;13.81;13.07;10.18;0.73
79576;SPS30;69045;48.136;11.386;2024-01-25T00:26:28;3.07;2.83;2.36;1.71;13.71;13.68;13.56;12.90;10.12;0.72
79576;SPS30;69045;48.136;11.386;2024-01-25T00:28:56;2.91;2.68;2.23;1.61;12.93;12.90;12.79;12.16;9.53;0.71
79576;SPS30;69045;48.136;11.386;2024-01-25T00:31:24;3.29;3.02;2.48;1.75;14.05;14.02;13.88;13.13;10.21;0.73
79576;SPS30;69045;48.136;11.386;2024-01-25T00:33:52;3.38;3.10;2.55;1.79;14.38;14.35;14.20;13.43;10.43;0.75
79576;SPS30;69045;48.136;11.386;2024-01-25T00:36:21;3.38;3.08;2.48;1.67;13.43;13.40;13.24;12.41;9.49;0.78
79576;SPS30;69045;48.136;11.386;2024-01-25T00:38:51;3.23;2.95;2.39;1.63;13.10;13.07;12.93;12.15;9.33;0.77
79576;SPS30;69045;48.136;11.386;2024-01-25T00:41:19;3.78;3.43;2.75;1.83;14.71;14.67;14.49;13.55;10.30;0.78
79576;SPS30;69045;48.136;11.386;2024-01-25T00:43:47;4.01;3.64;2.92;1.95;15.63;15.59;15.41;14.40;10.95;0.78
79576;SPS30;69045;48.136;11.386;2024-01-25T00:46:16;3.34;3.05;2.46;1.66;13.36;13.32;13.17;12.36;9.45;0.77
79576;SPS30;69045;48.136;11.386;2024-01-25T00:48:45;3.39;3.08;2.46;1.64;13.13;13.10;12.94;12.09;9.18;0.78
79576;SPS30;69045;48.136;11.386;2024-01-25T00:51:14;4.15;3.75;2.95;1.89;15.20;15.16;14.95;13.86;10.36;0.80
79576;SPS30;69045;48.136;11.386;2024-01-25T00:53:45;4.05;3.65;2.85;1.80;14.47;14.42;14.22;13.13;9.75;0.81
79576;SPS30;69045;48.136;11.386;2024-01-25T00:56:15;4.00;3.61;2.84;1.82;14.64;14.60;14.40;13.34;9.98;0.80
79576;SPS30;69045;48.136;11.386;2024-01-25T00:58:44;4.35;3.92;3.07;1.95;15.68;15.63;15.41;14.25;10.61;0.81
79576;SPS30;69045;48.136;11.386;2024-01-25T01:01:12;7.64;7.05;5.88;4.26;34.12;34.06;33.75;32.11;25.20;0.72
79576;SPS30;69045;48.136;11.386;2024-01-25T01:03:41;4.01;3.77;3.30;2.59;20.71;20.69;20.56;19.87;16.02;0.69
79576;SPS30;69045;48.136;11.386;2024-01-25T01:06:10;3.51;3.25;2.74;2.02;16.18;16.16;16.02;15.30;12.08;0.74
79576;SPS30;69045;48.136;11.386;2024-01-25T01:08:39;3.45;3.16;2.59;1.81;14.55;14.52;14.37;13.58;10.53;0.76
79576;SPS30;69045;48.136;11.386;2024-01-25T01:11:07;3.56;3.26;2.67;1.86;14.90;14.87;14.72;13.89;10.74;0.76
79576;SPS30;69045;48.136;11.386;2024-01-25T01:13:37;3.75;3.43;2.79;1.92;15.39;15.36;15.19;14.30;11.01;0.75
79576;SPS30;69045;48.136;11.386;2024-01-25T01:16:05;3.96;3.60;2.90;1.96;15.72;15.68;15.50;14.53;11.10;0.78
79576;SPS30;69045;48.136;11.386;2024-01-25T01:18:33;3.99;3.60;2.83;1.82;14.65;14.61;14.41;13.36;10.00;0.81
79576;SPS30;69045;48.136;11.386;2024-01-25T01:21:01;4.31;3.88;3.05;1.95;15.64;15.59;15.38;14.23;10.62;0.81
79576;SPS30;69045;48.136;11.386;2024-01-25T01:23:29;4.02;3.62;2.83;1.80;14.46;14.42;14.22;13.14;9.77;0.81
79576;SPS30;69045;48.136;11.386;2024-01-25T01:25:58;7.91;7.30;6.10;4.42;35.42;35.35;35.04;33.34;26.18;0.71
79576;SPS30;69045;48.136;11.386;2024-01-25T01:28:26;3.99;3.70;3.14;2.34;18.73;18.70;18.55;17.75;14.07;0.72
79576;SPS30;69045;48.136;11.386;2024-01-25T01:30:55;3.77;3.44;2.77;1.88;15.09;15.06;14.88;13.96;10.69;0.78
79576;SPS30;69045;48.136;11.386;2024-01-25T01:33:23;4.06;3.67;2.91;1.90;15.23;15.19;15.00;13.95;10.50;0.80
79576;SPS30;69045;48.136;11.386;2024-01-25T01:35:51;4.37;3.92;3.03;1.88;15.12;15.08;14.85;13.64;10.04;0.82
79576;SPS30;69045;48.136;11.386;2024-01-25T01:38:19;5.01;4.48;3.45;2.10;16.87;16.82;16.55;15.14;11.04;0.84
79576;SPS30;69045;48.136;11.386;2024-01-25T01:40:47;4.43;3.98;3.10;1.94;15.63;15.58;15.35;14.15;10.46;0.82
79576;SPS30;69045;48.136;11.386;2024-01-25T01:43:19;4.57;4.12;3.21;2.03;16.30;16.25;16.02;14.78;10.97;0.82
79576;SPS30;69045;48.136;11.386;2024-01-25T01:45:48;4.20;3.78;2.95;1.86;14.94;14.90;14.68;13.55;10.05;0.82
79576;SPS30;69045;48.136;11.386;2024-01-25T01:48:17;3.91;3.51;2.72;1.69;13.57;13.53;13.32;12.25;9.02;0.83
79576;SPS30;69045;48.136;11.386;2024-01-25T01:50:45;4.54;4.09;3.18;2.01;16.13;16.08;15.85;14.62;10.84;0.83
79576;SPS30;69045;48.136;11.386;2024-01-25T01:53:15;3.97;3.58;2.81;1.80;14.49;14.45;14.25;13.20;9.86;0.82
79576;SPS30;69045;48.136;11.386;2024-01-25T01:55:44;3.69;3.36;2.69;1.79;14.39;14.35;14.18;13.25;10.08;0.79
79576;SPS30;69045;48.136;11.386;2024-01-25T01:58:13;3.87;3.51;2.79;1.85;14.82;14.78;14.60;13.62;10.31;0.79
79576;SPS30;69045;48.136;11.386;2024-01-25T02:00:42;3.64;3.29;2.61;1.72;13.78;13.74;13.57;12.64;9.54;0.80
79576;SPS30;69045;48.136;11.386;2024-01-25T02:03:10;3.99;3.61;2.84;1.84;14.75;14.71;14.51;13.46;10.10;0.80
79576;SPS30;69045;48.136;11.386;2024-01-25T02:05:40;7.84;7.29;6.19;4.64;37.16;37.10;36.82;35.26;28.00;0.70
79576;SPS30;69045;48.136;11.386;2024-01-25T02:08:09;5.28;5.04;4.58;3.81;30.50;30.47;30.35;29.63;24.31;0.64
79576;SPS30;69045;48.136;11.386;2024-01-25T02:10:37;2.95;2.78;2.44;1.92;15.38;15.36;15.27;14.77;11.92;0.69
79576;SPS30;69045;48.136;11.386;2024-01-25T02:13:05;3.08;2.84;2.38;1.73;13.86;13.84;13.72;13.06;10.26;0.74
79576;SPS30;69045;48.136;11.386;2024-01-25T02:15:33;3.61;3.29;2.67;1.84;14.73;14.69;14.53;13.67;10.52;0.77
79576;SPS30;69045;48.136;11.386;2024-01-25T02:18:00;3.68;3.35;2.68;1.79;14.39;14.36;14.18;13.27;10.10;0.77
79576;SPS30;69045;48.136;11.386;2024-01-25T02:20:29;3.70;3.35;2.65;1.72;13.86;13.82;13.64;12.68;9.54;0.79
79576;SPS30;69045;48.136;11.386;2024-01-25T02:22:59;6.13;5.62;4.60;3.22;25.84;25.79;25.52;24.11;18.68;0.73
79576;SPS30;69045;48.136;11.386;2024-01-25T02:25:27;3.66;3.40;2.88;2.15;17.24;17.21;17.08;16.34;12.96;0.69
79576;SPS30;69045;48.136;11.386;2024-01-25T02:27:55;6.14;5.75;4.96;3.81;30.53;30.49;30.28;29.14;23.34;0.68
79576;SPS30;69045;48.136;11.386;2024-01-25T02:30:23;4.36;4.19;3.86;3.27;26.16;26.13;26.04;25.51;21.04;0.62
79576;SPS30;69045;48.136;11.386;2024-01-25T02:32:51;2.96;2.80;2.48;2.00;15.97;15.95;15.87;15.40;12.51;0.66
79576;SPS30;69045;48.136;11.386;2024-01-25T02:35:19;3.11;2.90;2.48;1.87;14.97;14.95;14.84;14.23;11.33;0.69
79576;SPS30;69045;48.136;11.386;2024-01-25T02:37:48;3.07;2.84;2.39;1.75;14.00;13.98;13.86;13.22;10.42;0.71
79576;SPS30;69045;48.136;11.386;2024-01-25T02:40:18;3.29;3.02;2.47;1.72;13.80;13.77;13.63;12.87;9.96;0.75
79576;SPS30;69045;48.136;11.386;2024-01-25T02:42:46;3.74;3.41;2.75;1.86;14.97;14.93;14.76;13.85;10.60;0.77
79576;SPS30;69045;48.136;11.386;2024-01-25T02:45:14;3.89;3.51;2.75;1.76;14.13;14.09;13.90;12.87;9.60;0.82
79576;SPS30;69045;48.136;11.386;2024-01-25T02:47:42;4.22;3.79;2.95;1.84;14.80;14.75;14.53;13.38;9.88;0.84
79576;SPS30;69045;48.136;11.386;2024-01-25T02:50:11;4.12;3.70;2.86;1.78;14.30;14.26;14.05;12.91;9.51;0.84
79576;SPS30;69045;48.136;11.386;2024-01-25T02:52:39;3.74;3.37;2.63;1.67;13.43;13.39;13.20;12.20;9.08;0.81
79576;SPS30;69045;48.136;11.386;2024-01-25T02:55:08;4.36;3.92;3.05;1.91;15.34;15.30;15.07;13.88;10.26;0.82
79576;SPS30;69045;48.136;11.386;2024-01-25T02:57:37;3.69;3.32;2.58;1.61;12.95;12.91;12.72;11.71;8.64;0.83
79576;SPS30;69045;48.136;11.386;2024-01-25T03:00:05;4.32;3.87;2.98;1.82;14.68;14.63;14.40;13.19;9.64;0.83
79576;SPS30;69045;48.136;11.386;2024-01-25T03:02:35;4.73;4.24;3.25;1.98;15.92;15.87;15.61;14.28;10.41;0.83
79576;SPS30;69045;48.136;11.386;2024-01-25T03:05:03;4.53;4.06;3.12;1.91;15.35;15.30;15.06;13.78;10.07;0.84
79576;SPS30;69045;48.136;11.386;2024-01-25T03:07:32;3.76;3.38;2.63;1.65;13.23;13.19;13.00;11.97;8.85;0.82
79576;SPS30;69045;48.136;11.386;2024-01-25T03:10:00;4.29;3.85;2.97;1.83;14.75;14.70;14.47;13.28;9.75;0.84
79576;SPS30;69045;48.136;11.386;2024-01-25T03:12:28;4.55;4.08;3.17;1.98;15.89;15.84;15.61;14.36;10.60;0.83
79576;SPS30;69045;48.136;11.386;2024-01-25T03:14:57;4.00;3.60;2.81;1.76;14.18;14.14;13.94;12.85;9.52;0.82
79576;SPS30;69045;48.136;11.386;2024-01-25T03:17:25;4.31;3.88;3.01;1.88;15.08;15.03;14.81;13.63;10.05;0.83
79576;SPS30;69045;48.136;11.386;2024-01-25T03:19:53;3.77;3.38;2.61;1.61;12.95;12.91;12.71;11.66;8.56;0.84
79576;SPS30;69045;48.136;11.386;2024-01-25T03:22:21;3.84;3.46;2.71;1.73;13.87;13.83;13.64;12.61;9.40;0.82
79576;SPS30;69045;48.136;11.386;2024-01-25T03:24:49;3.86;3.50;2.78;1.82;14.62;14.58;14.40;13.41;10.12;0.80
79576;SPS30;69045;48.136;11.386;2024-01-25T03:27:17;3.86;3.47;2.71;1.71;13.78;13.74;13.55;12.51;9.29;0.82
79576;SPS30;69045;48.136;11.386;2024-01-25T03:29:45;3.90;3.52;2.77;1.79;14.37;14.33;14.14;13.12;9.83;0.81
79576;SPS30;69045;48.136;11.386;2024-01-25T03:32:15;3.76;3.40;2.68;1.72;13.85;13.81;13.62;12.63;9.46;0.79
79576;SPS30;69045;48.136;11.386;2024-01-25T03:34:42;4.20;3.77;2.92;1.81;14.58;14.53;14.32;13.15;9.68;0.82
79576;SPS30;69045;48.136;11.386;2024-01-25T03:37:10;3.69;3.31;2.56;1.59;12.79;12.75;12.56;11.54;8.50;0.81
79576;SPS30;69045;48.136;11.386;2024-01-25T03:39:39;3.79;3.42;2.68;1.70;13.67;13.63;13.44;12.42;9.25;0.81
79576;SPS30;69045;48.136;11.386;2024-01-25T03:42:07;3.28;2.97;2.35;1.53;12.31;12.28;12.12;11.27;8.48;0.80
79576;SPS30;69045;48.136;11.386;2024-01-25T03:44:35;3.30;2.99;2.37;1.55;12.47;12.44;12.28;11.43;8.62;0.78
79576;SPS30;69045;48.136;11.386;2024-01-25T03:47:03;4.11;3.70;2.90;1.84;14.80;14.76;14.55;13.45;10.01;0.80
79576;SPS30;69045;48.136;11.386;2024-01-25T03:49:33;4.32;3.90;3.08;1.99;15.97;15.92;15.71;14.58;10.93;0.79
79576;SPS30;69045;48.136;11.386;2024-01-25T03:52:01;3.58;3.23;2.54;1.62;13.03;12.99;12.81;11.86;8.85;0.80
79576;SPS30;69045;48.136;11.386;2024-01-25T03:54:29;4.15;3.73;2.89;1.80;14.48;14.44;14.22;13.08;9.65;0.80
79576;SPS30;69045;48.136;11.386;2024-01-25T03:56:58;3.57;3.21;2.48;1.54;12.39;12.35;12.16;11.18;8.22;0.80
79576;SPS30;69045;48.136;11.386;2024-01-25T03:59:26;4.35;3.90;3.02;1.87;15.05;15.01;14.78;13.58;9.99;0.80
79576;SPS30;69045;48.136;11.386;2024-01-25T04:01:54;3.76;3.36;2.58;1.57;12.62;12.58;12.38;11.32;8.25;0.83
79576;SPS30;69045;48.136;11.386;2024-01-25T04:04:22;3.90;3.48;2.66;1.60;12.88;12.83;12.62;11.51;8.34;0.82
79576;SPS30;69045;48.136;11.386;2024-01-25T04:06:52;4.12;3.68;2.80;1.66;13.35;13.31;13.08;11.88;8.55;0.84
79576;SPS30;69045;48.136;11.386;2024-01-25T04:09:20;4.43;3.96;3.02;1.81;14.59;14.54;14.30;13.03;9.43;0.84
79576;SPS30;69045;48.136;11.386;2024-01-25T04:11:48;4.03;3.58;2.69;1.56;12.56;12.51;12.28;11.09;7.87;0.86
79576;SPS30;69045;48.136;11.386;2024-01-25T04:14:16;4.59;4.07;3.05;1.74;14.03;13.97;13.71;12.33;8.69;0.86
79576;SPS30;69045;48.136;11.386;2024-01-25T04:16:44;3.98;3.53;2.65;1.51;12.20;12.15;11.93;10.73;7.57;0.86
79576;SPS30;69045;48.136;11.386;2024-01-25T04:19:13;4.50;4.00;2.99;1.71;13.80;13.74;13.49;12.14;8.56;0.88
79576;SPS30;69045;48.136;11.386;2024-01-25T04:21:41;4.02;3.57;2.67;1.52;12.28;12.23;12.00;10.79;7.60;0.89
79576;SPS30;69045;48.136;11.386;2024-01-25T04:24:11;3.89;3.45;2.60;1.51;12.17;12.12;11.90;10.75;7.65;0.89
79576;SPS30;69045;48.136;11.386;2024-01-25T04:26:39;4.24;3.78;2.87;1.69;13.60;13.56;13.32;12.08;8.66;0.88
79576;SPS30;69045;48.136;11.386;2024-01-25T04:29:07;4.12;3.66;2.75;1.58;12.74;12.69;12.46;11.23;7.94;0.89
79576;SPS30;69045;48.136;11.386;2024-01-25T04:31:35;3.93;3.50;2.66;1.58;12.75;12.70;12.49;11.35;8.18;0.86
79576;SPS30;69045;48.136;11.386;2024-01-25T04:34:10;3.65;3.26;2.49;1.50;12.07;12.03;11.83;10.79;7.82;0.85
79576;SPS30;69045;48.136;11.386;2024-01-25T04:36:40;3.97;3.56;2.75;1.70;13.68;13.63;13.43;12.32;9.05;0.84
79576;SPS30;69045;48.136;11.386;2024-01-25T04:39:08;3.81;3.39;2.58;1.53;12.28;12.23;12.02;10.92;7.85;0.86
79576;SPS30;69045;48.136;11.386;2024-01-25T04:41:37;3.66;3.27;2.49;1.48;11.93;11.89;11.69;10.64;7.67;0.86
79576;SPS30;69045;48.136;11.386;2024-01-25T04:44:05;4.32;3.85;2.93;1.74;14.00;13.95;13.72;12.47;8.98;0.87
79576;SPS30;69045;48.136;11.386;2024-01-25T04:46:33;3.76;3.37;2.59;1.58;12.67;12.63;12.43;11.37;8.30;0.86
79576;SPS30;69045;48.136;11.386;2024-01-25T04:49:03;2.91;2.60;2.00;1.21;9.74;9.71;9.55;8.73;6.35;0.86
79576;SPS30;69045;48.136;11.386;2024-01-25T04:51:32;3.60;3.21;2.45;1.46;11.74;11.69;11.50;10.46;7.55;0.87
79576;SPS30;69045;48.136;11.386;2024-01-25T04:54:00;3.65;3.25;2.46;1.45;11.66;11.62;11.42;10.35;7.41;0.88
79576;SPS30;69045;48.136;11.386;2024-01-25T04:56:29;3.56;3.17;2.38;1.38;11.08;11.04;10.84;9.78;6.94;0.89
79576;SPS30;69045;48.136;11.386;2024-01-25T04:58:58;3.25;2.89;2.17;1.25;10.04;10.00;9.82;8.84;6.25;0.89
79576;SPS30;69045;48.136;11.386;2024-01-25T05:01:26;3.57;3.19;2.42;1.43;11.51;11.47;11.28;10.24;7.35;0.87
79576;SPS30;69045;48.136;11.386;2024-01-25T05:03:54;2.87;2.57;1.98;1.20;9.67;9.64;9.49;8.67;6.32;0.85
79576;SPS30;69045;48.136;11.386;2024-01-25T05:06:22;3.19;2.87;2.23;1.39;11.21;11.18;11.02;10.14;7.50;0.83
79576;SPS30;69045;48.136;11.386;2024-01-25T05:08:50;2.68;2.41;1.88;1.19;9.56;9.53;9.39;8.67;6.43;0.83
79576;SPS30;69045;48.136;11.386;2024-01-25T05:11:18;2.69;2.43;1.92;1.25;10.01;9.98;9.85;9.15;6.88;0.79
79576;SPS30;69045;48.136;11.386;2024-01-25T05:13:46;2.98;2.71;2.18;1.46;11.73;11.70;11.56;10.82;8.25;0.77
79576;SPS30;69045;48.136;11.386;2024-01-25T05:16:15;3.00;2.71;2.15;1.41;11.35;11.32;11.18;10.41;7.86;0.80
79576;SPS30;69045;48.136;11.386;2024-01-25T05:18:43;2.91;2.62;2.06;1.31;10.52;10.49;10.34;9.56;7.13;0.80
79576;SPS30;69045;48.136;11.386;2024-01-25T05:21:12;3.13;2.81;2.18;1.36;10.92;10.89;10.73;9.87;7.28;0.82
79576;SPS30;69045;48.136;11.386;2024-01-25T05:23:40;2.98;2.67;2.06;1.26;10.14;10.11;9.95;9.12;6.67;0.83
79576;SPS30;69045;48.136;11.386;2024-01-25T05:26:08;2.73;2.44;1.87;1.12;9.05;9.02;8.87;8.09;5.86;0.83
79576;SPS30;69045;48.136;11.386;2024-01-25T05:28:36;3.44;3.05;2.28;1.30;10.50;10.46;10.26;9.23;6.50;0.86
79576;SPS30;69045;48.136;11.386;2024-01-25T05:31:04;3.17;2.81;2.11;1.21;9.78;9.75;9.57;8.62;6.10;0.86
79576;SPS30;69045;48.136;11.386;2024-01-25T05:33:33;3.46;3.08;2.32;1.35;10.88;10.84;10.65;9.62;6.85;0.86
79576;SPS30;69045;48.136;11.386;2024-01-25T05:36:01;4.19;3.71;2.77;1.57;12.62;12.57;12.33;11.06;7.75;0.87
79576;SPS30;69045;48.136;11.386;2024-01-25T05:38:30;3.86;3.42;2.55;1.44;11.58;11.54;11.31;10.14;7.09;0.89
79576;SPS30;69045;48.136;11.386;2024-01-25T05:40:58;4.82;4.29;3.24;1.89;15.23;15.17;14.90;13.48;9.62;0.87
79576;SPS30;69045;48.136;11.386;2024-01-25T05:43:26;5.86;5.36;4.37;3.02;24.23;24.18;23.92;22.54;17.39;0.74
79576;SPS30;69045;48.136;11.386;2024-01-25T05:45:55;3.50;3.22;2.66;1.90;15.25;15.22;15.07;14.30;11.16;0.73
79576;SPS30;69045;48.136;11.386;2024-01-25T05:48:23;2.91;2.66;2.18;1.52;12.16;12.13;12.00;11.33;8.76;0.75
79576;SPS30;69045;48.136;11.386;2024-01-25T05:50:52;2.65;2.41;1.95;1.32;10.58;10.56;10.44;9.79;7.49;0.77
79576;SPS30;69045;48.136;11.386;2024-01-25T05:53:20;2.78;2.54;2.05;1.39;11.14;11.11;10.98;10.30;7.89;0.78
79576;SPS30;69045;48.136;11.386;2024-01-25T05:55:48;3.47;3.15;2.51;1.67;13.39;13.35;13.19;12.31;9.34;0.79
79576;SPS30;69045;48.136;11.386;2024-01-25T05:58:16;3.28;2.96;2.34;1.51;12.12;12.08;11.92;11.06;8.29;0.81
79576;SPS30;69045;48.136;11.386;2024-01-25T06:00:44;3.40;3.07;2.43;1.58;12.69;12.65;12.49;11.60;8.72;0.79
79576;SPS30;69045;48.136;11.386;2024-01-25T06:03:13;3.74;3.37;2.65;1.70;13.67;13.63;13.44;12.45;9.31;0.81
79576;SPS30;69045;48.136;11.386;2024-01-25T06:05:41;3.41;3.08;2.43;1.58;12.66;12.63;12.46;11.57;8.68;0.81
79576;SPS30;69045;48.136;11.386;2024-01-25T06:08:10;3.56;3.21;2.53;1.62;13.05;13.01;12.84;11.90;8.90;0.81
79576;SPS30;69045;48.136;11.386;2024-01-25T06:10:38;4.12;3.71;2.88;1.80;14.50;14.46;14.25;13.12;9.70;0.83
79576;SPS30;69045;48.136;11.386;2024-01-25T06:13:07;3.44;3.10;2.43;1.55;12.43;12.39;12.22;11.30;8.42;0.81
79576;SPS30;69045;48.136;11.386;2024-01-25T06:15:35;3.26;2.94;2.31;1.48;11.89;11.85;11.69;10.82;8.09;0.80
79576;SPS30;69045;48.136;11.386;2024-01-25T06:18:03;3.25;2.93;2.29;1.46;11.75;11.72;11.56;10.69;7.97;0.80
79576;SPS30;69045;48.136;11.386;2024-01-25T06:20:32;3.66;3.30;2.58;1.63;13.12;13.08;12.90;11.91;8.85;0.81
79576;SPS30;69045;48.136;11.386;2024-01-25T06:23:00;4.78;4.29;3.31;2.05;16.47;16.42;16.17;14.84;10.91;0.84
79576;SPS30;69045;48.136;11.386;2024-01-25T06:25:29;4.57;4.10;3.17;1.96;15.74;15.69;15.45;14.18;10.41;0.85
79576;SPS30;69045;48.136;11.386;2024-01-25T06:27:58;3.98;3.55;2.70;1.60;12.89;12.85;12.63;11.47;8.26;0.87
79576;SPS30;69045;48.136;11.386;2024-01-25T06:30:27;3.93;3.51;2.68;1.61;12.97;12.93;12.72;11.59;8.40;0.85
79576;SPS30;69045;48.136;11.386;2024-01-25T06:32:55;3.47;3.11;2.40;1.47;11.86;11.82;11.64;10.67;7.81;0.83
79576;SPS30;69045;48.136;11.386;2024-01-25T06:35:23;4.20;3.76;2.89;1.77;14.23;14.19;13.97;12.79;9.35;0.83
79576;SPS30;69045;48.136;11.386;2024-01-25T06:37:51;4.08;3.66;2.83;1.75;14.09;14.04;13.83;12.70;9.33;0.82
79576;SPS30;69045;48.136;11.386;2024-01-25T06:40:19;3.90;3.50;2.70;1.67;13.42;13.38;13.18;12.09;8.88;0.81
79576;SPS30;69045;48.136;11.386;2024-01-25T06:42:48;7.49;6.83;5.53;3.78;30.30;30.23;29.89;28.08;21.56;0.74
79576;SPS30;69045;48.136;11.386;2024-01-25T06:45:16;4.77;4.51;4.00;3.21;25.71;25.68;25.55;24.79;20.12;0.63
79576;SPS30;69045;48.136;11.386;2024-01-25T06:47:44;2.67;2.53;2.25;1.81;14.45;14.44;14.36;13.94;11.32;0.64
79576;SPS30;69045;48.136;11.386;2024-01-25T06:50:13;2.71;2.53;2.17;1.66;13.30;13.28;13.19;12.68;10.13;0.69
79576;SPS30;69045;48.136;11.386;2024-01-25T06:52:41;3.08;2.85;2.39;1.75;14.06;14.03;13.91;13.27;10.46;0.71
79576;SPS30;69045;48.136;11.386;2024-01-25T06:55:09;2.97;2.72;2.25;1.59;12.75;12.72;12.60;11.93;9.29;0.73
79576;SPS30;69045;48.136;11.386;2024-01-25T06:57:38;3.26;2.99;2.47;1.74;13.99;13.96;13.83;13.09;10.19;0.73
79576;SPS30;69045;48.136;11.386;2024-01-25T07:00:07;3.41;3.12;2.55;1.77;14.21;14.18;14.03;13.23;10.22;0.77
79576;SPS30;69045;48.136;11.386;2024-01-25T07:02:39;3.72;3.39;2.75;1.89;15.18;15.15;14.98;14.09;10.84;0.77
79576;SPS30;69045;48.136;11.386;2024-01-25T07:05:08;3.13;2.85;2.31;1.59;12.73;12.71;12.57;11.82;9.09;0.76
79576;SPS30;69045;48.136;11.386;2024-01-25T07:07:36;4.16;3.79;3.06;2.08;16.73;16.69;16.50;15.49;11.87;0.77
79576;SPS30;69045;48.136;11.386;2024-01-25T07:10:06;4.18;3.81;3.08;2.09;16.81;16.77;16.58;15.57;11.94;0.78
79576;SPS30;69045;48.136;11.386;2024-01-25T07:12:35;3.82;3.50;2.87;2.01;16.12;16.09;15.92;15.04;11.66;0.75
79576;SPS30;69045;48.136;11.386;2024-01-25T07:15:03;6.29;5.83;4.92;3.65;29.23;29.18;28.94;27.66;21.88;0.70
79576;SPS30;69045;48.136;11.386;2024-01-25T07:17:33;6.13;5.84;5.27;4.34;34.73;34.70;34.54;33.67;27.54;0.62
79576;SPS30;69045;48.136;11.386;2024-01-25T07:20:01;3.52;3.38;3.10;2.62;20.91;20.90;20.82;20.37;16.78;0.61
79576;SPS30;69045;48.136;11.386;2024-01-25T07:22:29;3.41;3.22;2.83;2.25;17.98;17.96;17.86;17.29;13.99;0.66
79576;SPS30;69045;48.136;11.386;2024-01-25T07:24:57;3.22;3.01;2.59;1.98;15.84;15.81;15.70;15.09;12.06;0.69
79576;SPS30;69045;48.136;11.386;2024-01-25T07:27:25;3.67;3.40;2.86;2.10;16.83;16.80;16.66;15.90;12.54;0.72
79576;SPS30;69045;48.136;11.386;2024-01-25T07:29:53;3.95;3.62;2.96;2.07;16.63;16.60;16.43;15.52;12.03;0.75
79576;SPS30;69045;48.136;11.386;2024-01-25T07:32:21;3.90;3.57;2.93;2.05;16.47;16.43;16.27;15.37;11.92;0.76
79576;SPS30;69045;48.136;11.386;2024-01-25T07:34:52;3.66;3.34;2.71;1.86;14.95;14.92;14.75;13.88;10.68;0.79
79576;SPS30;69045;48.136;11.386;2024-01-25T07:37:20;3.96;3.61;2.93;2.00;16.07;16.03;15.85;14.90;11.44;0.77
79576;SPS30;69045;48.136;11.386;2024-01-25T07:39:48;4.32;3.94;3.19;2.19;17.55;17.51;17.32;16.28;12.51;0.75
79576;SPS30;69045;48.136;11.386;2024-01-25T07:42:17;4.04;3.69;3.00;2.06;16.54;16.50;16.32;15.35;11.82;0.74
79576;SPS30;69045;48.136;11.386;2024-01-25T07:44:45;3.43;3.13;2.52;1.70;13.65;13.62;13.46;12.62;9.65;0.75
79576;SPS30;69045;48.136;11.386;2024-01-25T07:47:13;3.97;3.61;2.90;1.95;15.68;15.64;15.46;14.48;11.05;0.77
79576;SPS30;69045;48.136;11.386;2024-01-25T07:49:41;3.53;3.23;2.64;1.84;14.77;14.74;14.59;13.76;10.65;0.75
79576;SPS30;69045;48.136;11.386;2024-01-25T07:52:11;4.09;3.71;2.96;1.96;15.72;15.68;15.49;14.45;10.95;0.79
79576;SPS30;69045;48.136;11.386;2024-01-25T07:54:39;4.54;4.10;3.24;2.11;16.94;16.89;16.67;15.49;11.64;0.79
79576;SPS30;69045;48.136;11.386;2024-01-25T07:57:07;6.09;5.60;4.62;3.28;26.31;26.26;26.01;24.64;19.20;0.74
79576;SPS30;69045;48.136;11.386;2024-01-25T07:59:35;4.72;4.41;3.78;2.88;23.08;23.05;22.89;21.99;17.56;0.70
79576;SPS30;69045;48.136;11.386;2024-01-25T08:02:03;3.64;3.41;2.96;2.28;18.29;18.27;18.15;17.48;14.03;0.67
79576;SPS30;69045;48.136;11.386;2024-01-25T08:04:32;3.70;3.45;2.95;2.23;17.87;17.85;17.72;17.00;13.54;0.68
79576;SPS30;69045;48.136;11.386;2024-01-25T08:07:00;4.02;3.72;3.15;2.33;18.66;18.63;18.48;17.66;13.97;0.70
79576;SPS30;69045;48.136;11.386;2024-01-25T08:09:29;7.77;7.29;6.34;4.93;39.47;39.41;39.16;37.78;30.37;0.67
79576;SPS30;69045;48.136;11.386;2024-01-25T08:11:57;6.62;6.33;5.74;4.77;38.16;38.12;37.97;37.06;30.39;0.64
79576;SPS30;69045;48.136;11.386;2024-01-25T08:14:25;4.03;3.82;3.40;2.75;21.98;21.95;21.84;21.22;17.26;0.67
79576;SPS30;69045;48.136;11.386;2024-01-25T08:16:53;3.94;3.70;3.23;2.52;20.18;20.16;20.03;19.34;15.57;0.70
79576;SPS30;69045;48.136;11.386;2024-01-25T08:19:21;20.66;19.92;18.44;15.79;126.23;126.13;125.74;123.34;101.96;0.63
79576;SPS30;69045;48.136;11.386;2024-01-25T08:21:49;6.78;6.69;6.50;5.94;47.45;47.44;47.38;46.96;39.47;0.58
79576;SPS30;69045;48.136;11.386;2024-01-25T08:24:17;3.90;3.78;3.54;3.08;24.66;24.64;24.57;24.17;20.07;0.62
79576;SPS30;69045;48.136;11.386;2024-01-25T08:26:47;3.70;3.55;3.27;2.78;22.23;22.21;22.13;21.68;17.89;0.62
79576;SPS30;69045;48.136;11.386;2024-01-25T08:29:15;4.39;4.22;3.86;3.26;26.08;26.06;25.96;25.41;20.92;0.63
79576;SPS30;69045;48.136;11.386;2024-01-25T08:31:42;6.07;5.90;5.55;4.86;38.81;38.79;38.69;38.09;31.67;0.60
79576;SPS30;69045;48.136;11.386;2024-01-25T08:34:11;5.35;5.22;4.97;4.41;35.24;35.22;35.15;34.68;28.95;0.59
79576;SPS30;69045;48.136;11.386;2024-01-25T08:36:39;3.86;3.73;3.48;3.00;24.01;23.99;23.92;23.50;19.47;0.63
79576;SPS30;69045;48.136;11.386;2024-01-25T08:39:07;3.70;3.51;3.12;2.53;20.24;20.21;20.11;19.54;15.90;0.67
79576;SPS30;69045;48.136;11.386;2024-01-25T08:41:35;5.04;4.72;4.08;3.15;25.20;25.16;24.99;24.07;19.29;0.70
79576;SPS30;69045;48.136;11.386;2024-01-25T08:44:27;4.94;4.68;4.17;3.38;27.01;26.98;26.85;26.08;21.22;0.68
79576;SPS30;69045;48.136;11.386;2024-01-25T08:47:14;3.99;3.74;3.24;2.51;20.07;20.04;19.91;19.19;15.40;0.70
79576;SPS30;69045;48.136;11.386;2024-01-25T08:49:42;3.81;3.54;3.00;2.23;17.88;17.85;17.71;16.94;13.43;0.73
79576;SPS30;69045;48.136;11.386;2024-01-25T08:52:10;5.20;4.79;3.98;2.86;22.92;22.87;22.67;21.53;16.85;0.74
79576;SPS30;69045;48.136;11.386;2024-01-25T08:54:38;4.35;3.98;3.26;2.28;18.27;18.23;18.04;17.03;13.19;0.77
79576;SPS30;69045;48.136;11.386;2024-01-25T08:57:06;5.29;4.81;3.88;2.63;21.11;21.06;20.82;19.52;14.94;0.79
79576;SPS30;69045;48.136;11.386;2024-01-25T08:59:35;4.67;4.27;3.48;2.42;19.38;19.33;19.13;18.04;13.93;0.77
79576;SPS30;69045;48.136;11.386;2024-01-25T09:02:04;4.54;4.14;3.37;2.32;18.64;18.60;18.40;17.32;13.35;0.77
79576;SPS30;69045;48.136;11.386;2024-01-25T09:04:33;4.72;4.32;3.53;2.46;19.75;19.70;19.50;18.40;14.24;0.76
79576;SPS30;69045;48.136;11.386;2024-01-25T09:07:01;4.77;4.37;3.58;2.50;20.08;20.04;19.83;18.73;14.52;0.77
79576;SPS30;69045;48.136;11.386;2024-01-25T09:09:29;4.38;4.01;3.29;2.31;18.53;18.49;18.30;17.30;13.42;0.78
79576;SPS30;69045;48.136;11.386;2024-01-25T09:11:57;4.55;4.17;3.41;2.38;19.10;19.06;18.86;17.81;13.79;0.78
79576;SPS30;69045;48.136;11.386;2024-01-25T09:14:24;7.81;7.31;6.32;4.88;39.08;39.02;38.76;37.34;29.94;0.70